Time;durP1;ratioP1;P1;durP2;ratioP2;P2;SDS_P1;SDS_P2;PMS_P1;PMS_P2;Temp;Humidity;BMP_temperature;BMP_pressure;BME280_temperature;BME280_humidity;BME280_pressure;Samples;Min_cycle;Max_cycle;Signal;HPM_P1;HPM_P2
2021/02/01 00:00:07;;;;;;;72.3;39;;;;;;;-11.16;82.52539;97610.27;;;;
2021/02/01 00:10:04;;;;;;;78.2;37.4;;;;;;;-11.2;83.68164;97588.25;;;;
2021/02/01 00:20:00;;;;;;;66.2;35.1;;;;;;;-11.07;82.6709;97573.48;;;;
2021/02/01 00:29:57;;;;;;;78.5;35.1;;;;;;;-11.09;82.10059;97572.89;;;;
2021/02/01 00:39:53;;;;;;;61.3;32.9;;;;;;;-11.18;83.69629;97565.47;;;;
2021/02/01 00:49:50;;;;;;;66.3;34.8;;;;;;;-11.06;83.38965;97563.89;;;;
2021/02/01 00:59:46;;;;;;;61.4;33.6;;;;;;;-10.96;82.60645;97551.31;;;;
2021/02/01 01:09:43;;;;;;;58.5;32.8;;;;;;;-11.04;81.56543;97541.91;;;;
2021/02/01 01:19:39;;;;;;;81.8;34.2;;;;;;;-11.06;80.60938;97536.09;;;;
2021/02/01 01:29:36;;;;;;;57.3;31.7;;;;;;;-11.08;80.00391;97539.89;;;;
2021/02/01 01:39:32;;;;;;;60.1;34;;;;;;;-11.14;79.80078;97520.66;;;;
2021/02/01 01:49:29;;;;;;;67.9;34.6;;;;;;;-11.31;81.39355;97527.2;;;;
2021/02/01 01:59:25;;;;;;;79.9;38.1;;;;;;;-11.3;80.72266;97521.83;;;;
2021/02/01 02:09:22;;;;;;;65.8;33.2;;;;;;;-11.5;80.86426;97502.77;;;;
2021/02/01 02:19:33;;;;;;;52.5;30.7;;;;;;;-11.56;81.37793;97506.16;;;;
2021/02/01 02:29:21;;;;;;;63.4;30.3;;;;;;;-11.66;80.22363;97494.52;;;;
2021/02/01 02:39:11;;;;;;;64.7;33.5;;;;;;;-11.72;79.78613;97498.7;;;;
2021/02/01 02:49:08;;;;;;;62.3;30.9;;;;;;;-11.88;79.6582;97499.85;;;;
2021/02/01 02:59:04;;;;;;;64.7;36.2;;;;;;;-12;80.14746;97490.18;;;;
2021/02/01 03:09:00;;;;;;;69.6;38.1;;;;;;;-12.18;80.57031;97479.52;;;;
2021/02/01 03:18:57;;;;;;;67.5;33.2;;;;;;;-12.49;82.94336;97470.33;;;;
2021/02/01 03:28:53;;;;;;;60.1;33.4;;;;;;;-12.25;83.04297;97478.67;;;;
2021/02/01 03:38:50;;;;;;;79.8;36.9;;;;;;;-12.19;82.45996;97470.92;;;;
2021/02/01 03:48:46;;;;;;;63.2;30.3;;;;;;;-12.39;83.41211;97478.57;;;;
2021/02/01 03:58:43;;;;;;;62.9;29.8;;;;;;;-12.5;82.55762;97473.94;;;;
2021/02/01 04:08:39;;;;;;;55.7;36.1;;;;;;;-12.61;82.2168;97458.88;;;;
2021/02/01 04:18:36;;;;;;;57.9;32.8;;;;;;;-12.59;81.25977;97454.3;;;;
2021/02/01 04:28:33;;;;;;;60.6;34.4;;;;;;;-12.59;82.34766;97459.48;;;;
2021/02/01 04:38:29;;;;;;;101.8;47.9;;;;;;;-12.59;83.79785;97449.11;;;;
2021/02/01 04:48:25;;;;;;;59.5;36.4;;;;;;;-12.57;84.93066;97439.36;;;;
2021/02/01 04:58:21;;;;;;;86;53.5;;;;;;;-12.64;85.29883;97450.67;;;;
2021/02/01 05:08:18;;;;;;;80.2;48.6;;;;;;;-12.62;85.37695;97453.88;;;;
2021/02/01 05:18:14;;;;;;;79.4;41.3;;;;;;;-12.57;84.89844;97451.52;;;;
2021/02/01 05:28:10;;;;;;;87.9;40.9;;;;;;;-12.49;84.86133;97456.55;;;;
2021/02/01 05:38:07;;;;;;;69.7;39.3;;;;;;;-12.51;84.33594;97450.76;;;;
2021/02/01 05:48:03;;;;;;;56.8;36.7;;;;;;;-12.48;83.50977;97442.59;;;;
2021/02/01 05:57:59;;;;;;;67.6;38.1;;;;;;;-12.53;82.31738;97458.75;;;;
2021/02/01 06:07:56;;;;;;;82;39;;;;;;;-12.7;82.85938;97475.56;;;;
2021/02/01 06:17:52;;;;;;;67.7;36.5;;;;;;;-12.62;82.48145;97465.05;;;;
2021/02/01 06:27:48;;;;;;;78;40.4;;;;;;;-12.5;82.80273;97476.53;;;;
2021/02/01 06:37:50;;;;;;;72.6;41.3;;;;;;;-12.5;82.98438;97486.1;;;;
2021/02/01 06:47:46;;;;;;;70.1;41.7;;;;;;;-12.21;82.81738;97487.66;;;;
2021/02/01 06:57:40;;;;;;;72.6;39.3;;;;;;;-11.98;81.91309;97501.2;;;;
2021/02/01 07:07:36;;;;;;;76.5;38.5;;;;;;;-11.54;81.13574;97501.55;;;;
2021/02/01 07:17:33;;;;;;;100.5;56.6;;;;;;;-11.61;81.64551;97490.33;;;;
2021/02/01 07:27:26;;;;;;;85.7;48.8;;;;;;;-11.64;82.46289;97475.13;;;;
2021/02/01 07:37:23;;;;;;;116.1;62.5;;;;;;;-11.34;82.51953;97483.41;;;;
2021/02/01 07:47:19;;;;;;;81;38.3;;;;;;;-11.17;83.01367;97504.67;;;;
2021/02/01 07:57:16;;;;;;;60.9;37.5;;;;;;;-10.93;82.7959;97517.9;;;;
2021/02/01 08:07:12;;;;;;;90.6;44.6;;;;;;;-10.65;83.31152;97502.11;;;;
2021/02/01 08:17:09;;;;;;;94.9;58.7;;;;;;;-10.3;82.3418;97505.3;;;;
2021/02/01 08:27:05;;;;;;;107.9;64.2;;;;;;;-10.03;81.97559;97493.02;;;;
2021/02/01 08:37:02;;;;;;;106;70.3;;;;;;;-9.95;82.30273;97492.78;;;;
2021/02/01 08:46:59;;;;;;;106.1;58.8;;;;;;;-9.69;81.5918;97482.29;;;;
2021/02/01 08:56:55;;;;;;;110;62.7;;;;;;;-9.61;81.25293;97500.28;;;;
2021/02/01 09:06:52;;;;;;;120.3;67.9;;;;;;;-9.42;81.1084;97509.85;;;;
2021/02/01 09:16:48;;;;;;;92.6;58.4;;;;;;;-9.22;80.79199;97510.55;;;;
2021/02/01 09:26:45;;;;;;;89.4;47.2;;;;;;;-8.58;80.92676;97517.39;;;;
2021/02/01 09:36:42;;;;;;;80.4;52.2;;;;;;;-8.22;82.41895;97512.22;;;;
2021/02/01 09:46:39;;;;;;;81.3;47.7;;;;;;;-7.45;82.88281;97516.06;;;;
2021/02/01 09:56:36;;;;;;;58.7;40.6;;;;;;;-6.57;82.51758;97497.95;;;;
2021/02/01 10:06:40;;;;;;;49.4;35.4;;;;;;;-6.06;83.15723;97504.38;;;;
2021/02/01 10:16:30;;;;;;;64.2;41.5;;;;;;;-5.95;83.34082;97506.2;;;;
2021/02/01 10:26:27;;;;;;;64.7;40;;;;;;;-5.39;82.60742;97489.78;;;;
2021/02/01 10:36:24;;;;;;;33.4;27;;;;;;;-5.07;83.17871;97479.63;;;;
2021/02/01 10:46:21;;;;;;;22.6;17.1;;;;;;;-5.01;82.95215;97479.48;;;;
2021/02/01 10:56:19;;;;;;;22.6;16.3;;;;;;;-5.19;84.3623;97467.33;;;;
2021/02/01 11:06:18;;;;;;;25;15.1;;;;;;;-4.58;82.89746;97474.44;;;;
2021/02/01 11:16:13;;;;;;;29.7;21.1;;;;;;;-4.11;81.76953;97479.38;;;;
2021/02/01 11:26:11;;;;;;;28.4;21.8;;;;;;;-3.81;80.05273;97471.11;;;;
2021/02/01 11:36:08;;;;;;;24.7;17.7;;;;;;;-4;81.08301;97461.91;;;;
2021/02/01 11:46:05;;;;;;;28.8;19.6;;;;;;;-3.96;81.99316;97452.5;;;;
2021/02/01 11:56:03;;;;;;;31.6;19.7;;;;;;;-3.88;81.69336;97459.95;;;;
2021/02/01 12:06:00;;;;;;;29.8;17.8;;;;;;;-3.97;81.99121;97450.9;;;;
2021/02/01 12:15:57;;;;;;;26.4;18.5;;;;;;;-3.81;81.99219;97435.06;;;;
2021/02/01 12:25:55;;;;;;;28.1;17.1;;;;;;;-3.51;81.47168;97432.02;;;;
2021/02/01 12:35:52;;;;;;;32.8;22.9;;;;;;;-3.77;81.85742;97423.02;;;;
2021/02/01 12:45:49;;;;;;;24.4;16;;;;;;;-4.01;82.82227;97421.64;;;;
2021/02/01 12:55:47;;;;;;;20.1;16.9;;;;;;;-4.11;82.59863;97422.31;;;;
2021/02/01 13:05:44;;;;;;;39.1;17.7;;;;;;;-4.06;83.27148;97422.36;;;;
2021/02/01 13:15:45;;;;;;;21.8;17;;;;;;;-3.9;82.22461;97420.74;;;;
2021/02/01 13:25:39;;;;;;;21.5;18.5;;;;;;;-4.2;82.67773;97413.22;;;;
2021/02/01 13:35:36;;;;;;;27.2;17.4;;;;;;;-4.17;83.17383;97407.5;;;;
2021/02/01 13:45:34;;;;;;;29.4;20.4;;;;;;;-4.03;82.91699;97421.1;;;;
2021/02/01 13:55:35;;;;;;;26.6;17.9;;;;;;;-4.36;83.85254;97429.83;;;;
2021/02/01 14:05:28;;;;;;;37.4;25.5;;;;;;;-4.51;85.34375;97426.95;;;;
2021/02/01 14:15:25;;;;;;;27.5;24.1;;;;;;;-4.79;86.15625;97424.42;;;;
2021/02/01 14:25:23;;;;;;;43.3;31.4;;;;;;;-4.66;85.87695;97421.48;;;;
2021/02/01 14:35:20;;;;;;;48.6;30.7;;;;;;;-4.72;86.51563;97417.19;;;;
2021/02/01 14:45:17;;;;;;;43.4;27.8;;;;;;;-4.69;85.93848;97401.73;;;;
2021/02/01 14:55:14;;;;;;;39.2;31;;;;;;;-4.62;86.34277;97430.48;;;;
2021/02/01 15:05:12;;;;;;;46.4;29.3;;;;;;;-4.71;86.21582;97418.75;;;;
2021/02/01 15:15:09;;;;;;;40.7;28.7;;;;;;;-4.49;85.90137;97424.91;;;;
2021/02/01 15:25:06;;;;;;;35.5;29.7;;;;;;;-4.46;85.41992;97440.2;;;;
2021/02/01 15:35:03;;;;;;;44.6;30.1;;;;;;;-4.61;85.74707;97442.57;;;;
2021/02/01 15:45:01;;;;;;;46.5;32.4;;;;;;;-4.54;85.66211;97452.92;;;;
2021/02/01 15:54:58;;;;;;;45.7;31.5;;;;;;;-4.64;85.70703;97453.56;;;;
2021/02/01 16:04:55;;;;;;;42.1;27.8;;;;;;;-4.58;85.85059;97463.12;;;;
2021/02/01 16:14:52;;;;;;;46.2;34.8;;;;;;;-4.55;85.83398;97480.27;;;;
2021/02/01 16:24:50;;;;;;;54;38.9;;;;;;;-4.54;84.93457;97476.59;;;;
2021/02/01 16:34:47;;;;;;;58.3;37.4;;;;;;;-4.5;84.54102;97480.34;;;;
2021/02/01 16:44:44;;;;;;;57.9;41.1;;;;;;;-4.6;84.66309;97479.15;;;;
2021/02/01 16:54:41;;;;;;;50.8;34.3;;;;;;;-4.5;84.47754;97489.03;;;;
2021/02/01 17:04:39;;;;;;;50.8;36.8;;;;;;;-4.43;84.50098;97489.67;;;;
2021/02/01 17:14:36;;;;;;;58.4;37.2;;;;;;;-4.38;84.45605;97499.48;;;;
2021/02/01 17:24:34;;;;;;;67;44.2;;;;;;;-4.42;84.3623;97490.47;;;;
2021/02/01 17:34:30;;;;;;;71.8;49.8;;;;;;;-4.41;84.72266;97498.13;;;;
2021/02/01 17:44:28;;;;;;;67.8;40.6;;;;;;;-4.38;84.44727;97500.28;;;;
2021/02/01 17:54:25;;;;;;;54.6;39.1;;;;;;;-4.35;84.60449;97507.69;;;;
2021/02/01 18:04:22;;;;;;;67.3;45.6;;;;;;;-4.39;84.48633;97500.51;;;;
2021/02/01 18:14:19;;;;;;;65.7;42.1;;;;;;;-4.38;84.79492;97505.54;;;;
2021/02/01 18:24:17;;;;;;;60.1;40.5;;;;;;;-4.43;84.8252;97504.64;;;;
2021/02/01 18:34:14;;;;;;;54.8;38;;;;;;;-4.43;84.8252;97491.5;;;;
2021/02/01 18:44:11;;;;;;;83.3;44.5;;;;;;;-4.46;84.53906;97508.55;;;;
2021/02/01 18:54:08;;;;;;;56.2;41;;;;;;;-4.59;85.03418;97516.75;;;;
2021/02/01 19:04:06;;;;;;;62.8;41.5;;;;;;;-4.73;85.40918;97513.63;;;;
2021/02/01 19:14:03;;;;;;;56.9;36.2;;;;;;;-4.79;85.35254;97516.41;;;;
2021/02/01 19:24:00;;;;;;;72.6;42.9;;;;;;;-4.9;85.33984;97509.36;;;;
2021/02/01 19:33:57;;;;;;;57.2;37;;;;;;;-5.09;85.49902;97504.28;;;;
2021/02/01 19:43:54;;;;;;;65.1;41.7;;;;;;;-5.19;85.33691;97516.42;;;;
2021/02/01 19:53:51;;;;;;;59.1;38.6;;;;;;;-5.39;85.6543;97516.83;;;;
2021/02/01 20:03:49;;;;;;;67.2;41.4;;;;;;;-5.51;85.48828;97510.8;;;;
2021/02/01 20:13:46;;;;;;;65.4;40.8;;;;;;;-5.66;85.81445;97507.88;;;;
2021/02/01 20:23:43;;;;;;;86.3;42.7;;;;;;;-5.82;86.33398;97529.54;;;;
2021/02/01 20:33:40;;;;;;;65.5;41.5;;;;;;;-5.99;85.61719;97518.17;;;;
2021/02/01 20:43:37;;;;;;;71.3;40.9;;;;;;;-6.17;85.73242;97532.19;;;;
2021/02/01 20:53:35;;;;;;;66.4;37.9;;;;;;;-6.37;85.81152;97529.89;;;;
2021/02/01 21:03:34;;;;;;;56.2;37.8;;;;;;;-6.52;86.8291;97531.32;;;;
2021/02/01 21:13:28;;;;;;;53.7;32.5;;;;;;;-6.59;86.55469;97544.53;;;;
2021/02/01 21:23:25;;;;;;;56.5;34.5;;;;;;;-6.65;86.30566;97542.81;;;;
2021/02/01 21:33:22;;;;;;;52.2;29;;;;;;;-6.75;86.31641;97550.41;;;;
2021/02/01 21:43:19;;;;;;;53.3;31.9;;;;;;;-6.86;85.77832;97538.88;;;;
2021/02/01 21:53:16;;;;;;;76.6;43.9;;;;;;;-7.01;86.16602;97567.26;;;;
2021/02/01 22:03:13;;;;;;;66.2;43.4;;;;;;;-7.19;85.88281;97575.96;;;;
2021/02/01 22:13:11;;;;;;;58.4;36.2;;;;;;;-7.23;86.52344;97577.41;;;;
2021/02/01 22:23:07;;;;;;;76.1;40.4;;;;;;;-7.19;85.88184;97583.01;;;;
2021/02/01 22:33:04;;;;;;;66.2;38;;;;;;;-7.2;86.42969;97586.64;;;;
2021/02/01 22:43:01;;;;;;;60.4;41.6;;;;;;;-7.27;85.40332;97576.25;;;;
2021/02/01 22:52:59;;;;;;;71.8;38.9;;;;;;;-7.43;85.08789;97589.92;;;;
2021/02/01 23:02:55;;;;;;;58.3;34.7;;;;;;;-7.47;84.4209;97585.33;;;;
2021/02/01 23:12:52;;;;;;;50.2;33.1;;;;;;;-7.39;85.03223;97596.3;;;;
2021/02/01 23:22:48;;;;;;;62.3;38.6;;;;;;;-7.46;84.1543;97618.34;;;;
2021/02/01 23:32:45;;;;;;;74.1;42.1;;;;;;;-7.59;84.06348;97614.02;;;;
2021/02/01 23:42:42;;;;;;;63.8;39.4;;;;;;;-7.86;85.11035;97610.84;;;;
2021/02/01 23:52:39;;;;;;;84.8;48.3;;;;;;;-7.93;85.06152;97606.69;;;;
